createdAt,value
2018-03-17T00:00:42.929Z,2.80
2018-03-17T00:03:46.204Z,2.63
2018-03-17T00:06:50.222Z,2.27
2018-03-17T00:09:53.495Z,2.03
2018-03-17T00:12:56.761Z,2.00
2018-03-17T00:16:00.112Z,2.17
2018-03-17T00:19:03.390Z,2.17
2018-03-17T00:22:07.417Z,2.17
2018-03-17T00:25:11.457Z,2.23
2018-03-17T00:28:14.722Z,2.10
2018-03-17T00:31:18.749Z,2.43
2018-03-17T00:34:22.801Z,2.07
2018-03-17T00:37:26.055Z,2.20
2018-03-17T00:40:30.161Z,2.30
2018-03-17T00:43:34.187Z,1.90
2018-03-17T00:46:38.201Z,2.30
2018-03-17T00:49:42.225Z,1.87
2018-03-17T00:52:45.501Z,2.10
2018-03-17T00:55:48.927Z,2.30
2018-03-17T00:58:52.196Z,2.03
2018-03-17T01:01:55.452Z,2.57
2018-03-17T01:04:58.716Z,2.00
2018-03-17T01:08:01.988Z,1.87
2018-03-17T01:11:06.140Z,1.80
2018-03-17T01:14:09.449Z,2.30
2018-03-17T01:17:12.737Z,2.60
2018-03-17T01:20:16.040Z,2.07
2018-03-17T01:23:19.352Z,2.10
2018-03-17T01:26:22.817Z,2.27
2018-03-17T01:29:27.144Z,1.93
2018-03-17T01:32:30.831Z,1.83
2018-03-17T01:35:35.224Z,2.53
2018-03-17T01:38:39.591Z,2.23
2018-03-17T01:41:42.910Z,1.95
2018-03-17T01:44:46.185Z,1.90
2018-03-17T01:47:49.469Z,1.93
2018-03-17T01:50:53.567Z,1.48
2018-03-17T01:54:14.819Z,2.17
2018-03-17T01:57:18.128Z,2.20
2018-03-17T02:00:21.416Z,1.80
2018-03-17T02:03:25.439Z,2.67
2018-03-17T02:06:28.874Z,1.60
2018-03-17T02:09:32.157Z,2.13
2018-03-17T02:12:35.442Z,1.57
2018-03-17T02:15:38.730Z,2.13
2018-03-17T02:18:41.998Z,2.00
2018-03-17T02:21:45.281Z,1.87
2018-03-17T02:24:48.546Z,2.13
2018-03-17T02:27:51.813Z,1.77
2018-03-17T02:30:55.082Z,2.27
2018-03-17T02:33:58.369Z,1.53
2018-03-17T02:37:01.631Z,2.00
2018-03-17T02:40:04.905Z,2.10
2018-03-17T02:43:08.165Z,1.90
2018-03-17T02:46:11.441Z,1.80
2018-03-17T02:49:14.690Z,2.15
2018-03-17T02:52:17.974Z,1.70
2018-03-17T02:55:22.009Z,1.60
2018-03-17T02:58:25.273Z,1.63
2018-03-17T03:01:29.314Z,1.97
2018-03-17T03:04:32.613Z,2.23
2018-03-17T03:07:35.869Z,2.47
2018-03-17T03:10:39.919Z,3.60
2018-03-17T03:13:44.021Z,3.07
2018-03-17T03:16:50.985Z,2.27
2018-03-17T03:19:55.008Z,2.23
2018-03-17T03:22:58.268Z,2.33
2018-03-17T03:26:01.548Z,1.97
2018-03-17T03:29:04.901Z,2.22
2018-03-17T03:32:08.169Z,1.93
2018-03-17T03:35:11.549Z,2.20
2018-03-17T03:38:14.790Z,1.90
2018-03-17T03:41:18.091Z,2.10
2018-03-17T03:44:21.358Z,2.67
2018-03-17T03:47:24.629Z,1.53
2018-03-17T03:50:27.889Z,1.90
2018-03-17T03:53:31.938Z,1.90
2018-03-17T03:56:35.207Z,2.07
2018-03-17T03:59:39.251Z,1.90
2018-03-17T04:02:42.532Z,2.20
2018-03-17T04:05:45.831Z,1.87
2018-03-17T04:08:49.125Z,2.00
2018-03-17T04:11:53.154Z,2.00
2018-03-17T04:14:56.421Z,1.80
2018-03-17T04:18:00.450Z,1.90
2018-03-17T04:21:04.482Z,1.70
2018-03-17T04:24:07.845Z,1.80
2018-03-17T04:27:11.881Z,1.47
2018-03-17T04:30:15.155Z,1.90
2018-03-17T04:33:19.206Z,1.97
2018-03-17T04:36:22.482Z,2.00
2018-03-17T04:39:26.725Z,1.73
2018-03-17T04:42:30.804Z,1.80
2018-03-17T04:45:34.088Z,2.13
2018-03-17T04:48:37.393Z,1.57
2018-03-17T04:51:40.657Z,1.50
2018-03-17T04:54:43.934Z,1.97
2018-03-17T04:57:47.216Z,2.00
2018-03-17T05:00:50.492Z,2.00
2018-03-17T05:03:54.552Z,1.98
2018-03-17T05:06:57.826Z,1.50
2018-03-17T05:10:01.137Z,1.97
2018-03-17T05:13:04.375Z,1.90
2018-03-17T05:16:07.639Z,1.60
2018-03-17T05:19:10.919Z,1.37
2018-03-17T05:22:14.189Z,1.77
2018-03-17T05:25:17.459Z,2.23
2018-03-17T05:28:20.714Z,2.47
2018-03-17T05:31:23.995Z,8.63
2018-03-17T05:34:28.021Z,7.93
2018-03-17T05:37:31.292Z,5.13
2018-03-17T05:40:35.330Z,3.30
2018-03-17T05:43:38.619Z,2.63
2018-03-17T05:46:42.648Z,1.87
2018-03-17T05:49:45.924Z,2.15
2018-03-17T05:52:50.086Z,2.43
2018-03-17T05:55:53.386Z,2.23
2018-03-17T05:58:56.650Z,2.63
2018-03-17T06:02:00.074Z,2.70
2018-03-17T06:05:03.336Z,2.33
2018-03-17T06:08:07.373Z,2.87
2018-03-17T06:11:10.637Z,6.03
2018-03-17T06:14:14.773Z,6.87
2018-03-17T06:17:18.198Z,6.60
2018-03-17T06:20:21.453Z,5.07
2018-03-17T06:23:25.486Z,3.93
2018-03-17T06:26:29.533Z,3.50
2018-03-17T06:29:33.628Z,2.70
2018-03-17T06:32:36.912Z,2.60
2018-03-17T06:35:41.027Z,2.30
2018-03-17T06:38:46.285Z,2.23
2018-03-17T06:41:49.762Z,2.57
2018-03-17T06:44:53.823Z,2.77
2018-03-17T06:47:57.085Z,3.20
2018-03-17T06:51:01.137Z,1.53
2018-03-17T06:54:04.401Z,1.77
2018-03-17T06:57:07.677Z,2.03
2018-03-17T07:00:11.818Z,2.40
2018-03-17T07:03:15.085Z,2.27
2018-03-17T07:06:18.414Z,2.10
2018-03-17T07:09:21.684Z,2.40
2018-03-17T07:12:25.729Z,2.70
2018-03-17T07:15:29.123Z,3.17
2018-03-17T07:18:32.389Z,3.07
2018-03-17T07:21:35.920Z,2.47
2018-03-17T07:24:39.225Z,6.47
2018-03-17T07:27:42.486Z,7.10
2018-03-17T07:30:45.899Z,5.43
2018-03-17T07:33:49.316Z,5.57
2018-03-17T07:36:53.437Z,5.03
2018-03-17T07:39:56.728Z,4.23
2018-03-17T07:43:00.854Z,6.17
2018-03-17T07:46:04.348Z,5.27
2018-03-17T07:49:07.621Z,6.43
2018-03-17T07:52:10.896Z,6.37
2018-03-17T07:55:14.253Z,7.53
2018-03-17T07:58:17.518Z,7.27
2018-03-17T08:01:22.074Z,7.23
2018-03-17T08:04:25.354Z,6.87
2018-03-17T08:07:29.382Z,9.53
2018-03-17T08:10:33.417Z,8.53
2018-03-17T08:13:36.693Z,9.70
2018-03-17T08:16:40.293Z,9.65
2018-03-17T08:19:44.521Z,9.50
2018-03-17T08:22:47.882Z,7.97
2018-03-17T08:25:52.025Z,7.53
2018-03-17T08:28:56.199Z,8.37
2018-03-17T08:31:59.519Z,7.50
2018-03-17T08:35:02.827Z,8.70
2018-03-17T08:38:06.905Z,9.63
2018-03-17T08:41:10.258Z,9.13
2018-03-17T08:44:14.529Z,6.97
2018-03-17T08:47:18.164Z,8.90
2018-03-17T08:50:21.457Z,10.43
2018-03-17T08:53:24.785Z,10.30
2018-03-17T08:56:28.069Z,10.73
2018-03-17T08:59:32.106Z,10.37
2018-03-17T09:02:35.433Z,11.47
2018-03-17T09:05:38.769Z,12.03
2018-03-17T09:08:42.895Z,12.10
2018-03-17T09:11:46.924Z,11.70
2018-03-17T09:14:50.226Z,12.07
2018-03-17T09:17:53.558Z,10.53
2018-03-17T09:20:56.928Z,11.77
2018-03-17T09:24:00.666Z,10.53
2018-03-17T09:27:03.998Z,11.53
2018-03-17T09:30:08.798Z,11.53
2018-03-17T09:33:12.238Z,12.07
2018-03-17T09:36:16.410Z,12.60
2018-03-17T09:39:19.705Z,11.70
2018-03-17T09:42:23.073Z,12.33
2018-03-17T09:45:26.342Z,12.27
2018-03-17T09:48:29.973Z,12.27
2018-03-17T09:51:34.091Z,12.37
2018-03-17T09:54:38.130Z,12.83
2018-03-17T09:57:41.486Z,13.07
2018-03-17T10:00:45.634Z,12.77
2018-03-17T10:03:48.969Z,14.13
2018-03-17T10:06:52.232Z,13.60
2018-03-17T10:09:55.521Z,14.30
2018-03-17T10:12:58.793Z,13.93
2018-03-17T10:16:03.386Z,14.47
2018-03-17T10:19:06.945Z,13.43
2018-03-17T10:22:10.994Z,12.67
2018-03-17T10:25:14.380Z,14.13
2018-03-17T10:28:17.683Z,13.30
2018-03-17T10:31:21.066Z,13.77
2018-03-17T10:34:24.385Z,13.10
2018-03-17T10:37:27.703Z,14.00
2018-03-17T10:40:31.158Z,13.47
2018-03-17T10:43:34.446Z,14.00
2018-03-17T10:46:38.592Z,12.80
2018-03-17T10:49:41.875Z,14.43
2018-03-17T10:52:45.143Z,13.80
2018-03-17T10:55:49.227Z,14.27
2018-03-17T10:58:52.530Z,13.43
2018-03-17T11:02:10.694Z,14.37
2018-03-17T11:05:14.026Z,14.43
2018-03-17T11:08:17.299Z,13.40
2018-03-17T11:11:22.190Z,14.57
2018-03-17T11:14:25.639Z,13.80
2018-03-17T11:17:28.837Z,13.30
2018-03-17T11:20:32.869Z,11.63
2018-03-17T11:23:36.298Z,12.07
2018-03-17T11:26:40.897Z,11.33
2018-03-17T11:29:44.197Z,11.30
2018-03-17T11:32:47.533Z,13.30
2018-03-17T11:35:50.814Z,13.10
2018-03-17T11:38:54.157Z,12.60
2018-03-17T11:41:58.950Z,13.03
2018-03-17T11:45:02.565Z,12.10
2018-03-17T11:48:05.829Z,12.03
2018-03-17T11:51:09.089Z,12.80
2018-03-17T11:54:12.617Z,12.43
2018-03-17T11:57:15.975Z,13.07
2018-03-17T12:00:19.315Z,12.93
2018-03-17T12:03:22.613Z,13.70
2018-03-17T12:06:26.654Z,12.10
2018-03-17T12:09:30.011Z,10.07
2018-03-17T12:12:33.274Z,11.77
2018-03-17T12:15:36.743Z,11.73
2018-03-17T12:18:40.626Z,11.50
2018-03-17T12:21:43.921Z,10.38
2018-03-17T12:24:47.959Z,9.67
2018-03-17T12:27:51.229Z,9.07
2018-03-17T12:30:55.278Z,10.37
2018-03-17T12:33:58.549Z,10.17
2018-03-17T12:37:02.633Z,11.20
2018-03-17T12:40:06.178Z,10.02
2018-03-17T12:43:10.398Z,9.70
2018-03-17T12:46:13.722Z,9.07
2018-03-17T12:49:16.991Z,9.10
2018-03-17T12:52:21.111Z,9.73
2018-03-17T12:55:24.432Z,8.70
2018-03-17T12:58:27.705Z,9.13
2018-03-17T13:01:30.976Z,8.57
2018-03-17T13:04:34.374Z,8.47
2018-03-17T13:07:37.610Z,7.70
2018-03-17T13:10:40.897Z,8.15
2018-03-17T13:13:44.556Z,6.90
2018-03-17T13:16:47.808Z,7.87
2018-03-17T13:19:51.215Z,7.33
2018-03-17T13:23:12.377Z,6.93
2018-03-17T13:26:17.192Z,7.13
2018-03-17T13:29:20.436Z,8.60
2018-03-17T13:32:42.449Z,8.73
2018-03-17T13:36:03.885Z,9.50
2018-03-17T13:39:08.051Z,8.37
2018-03-17T13:42:11.329Z,9.27
2018-03-17T13:45:14.718Z,9.97
2018-03-17T13:48:17.986Z,8.87
2018-03-17T13:51:22.762Z,9.37
2018-03-17T13:54:26.514Z,9.27
2018-03-17T13:57:29.781Z,9.43
2018-03-17T14:00:33.051Z,11.37
2018-03-17T14:03:37.076Z,9.73
2018-03-17T14:06:40.365Z,9.53
2018-03-17T14:09:43.790Z,10.40
2018-03-17T14:12:47.173Z,12.27
2018-03-17T14:15:51.262Z,11.30
2018-03-17T14:18:55.391Z,12.43
2018-03-17T14:21:59.420Z,11.70
2018-03-17T14:25:02.697Z,9.87
2018-03-17T14:28:06.721Z,10.93
2018-03-17T14:31:09.995Z,9.52
2018-03-17T14:34:13.261Z,11.13
2018-03-17T14:37:16.580Z,10.20
2018-03-17T14:40:20.118Z,10.60
2018-03-17T14:43:23.439Z,10.83
2018-03-17T14:46:26.761Z,11.93
2018-03-17T14:49:30.062Z,10.77
2018-03-17T14:52:33.330Z,11.53
2018-03-17T14:55:36.608Z,12.00
2018-03-17T14:58:40.637Z,11.67
2018-03-17T15:01:43.934Z,11.88
2018-03-17T15:04:47.215Z,13.77
2018-03-17T15:07:50.511Z,12.30
2018-03-17T15:10:53.822Z,13.40
2018-03-17T15:13:57.122Z,12.27
2018-03-17T15:17:00.413Z,13.23
2018-03-17T15:20:04.452Z,12.13
2018-03-17T15:23:07.745Z,11.53
2018-03-17T15:26:11.049Z,13.60
2018-03-17T15:29:14.435Z,11.93
2018-03-17T15:32:17.729Z,14.47
2018-03-17T15:35:21.000Z,14.20
2018-03-17T15:38:24.262Z,13.37
2018-03-17T15:41:27.526Z,13.80
2018-03-17T15:44:31.608Z,14.35
2018-03-17T15:47:34.877Z,13.77
2018-03-17T15:50:38.238Z,15.48
2018-03-17T15:53:41.518Z,14.60
2018-03-17T15:56:45.547Z,14.87
2018-03-17T15:59:48.865Z,14.77
2018-03-17T16:02:52.271Z,14.00
2018-03-17T16:05:55.551Z,14.30
2018-03-17T16:08:59.608Z,15.43
2018-03-17T16:12:03.662Z,15.63
2018-03-17T16:15:07.754Z,16.77
2018-03-17T16:18:11.024Z,14.17
2018-03-17T16:21:14.330Z,15.83
2018-03-17T16:24:17.602Z,16.43
2018-03-17T16:27:20.884Z,14.73
2018-03-17T16:30:24.159Z,18.43
2018-03-17T16:33:27.748Z,15.40
2018-03-17T16:36:31.017Z,16.90
2018-03-17T16:39:34.290Z,13.67
2018-03-17T16:42:37.652Z,15.17
2018-03-17T16:45:41.716Z,18.20
2018-03-17T16:51:42.609Z,15.73
2018-03-17T16:54:45.948Z,15.48
2018-03-17T16:57:50.425Z,16.73
2018-03-17T17:00:53.695Z,17.20
2018-03-17T17:03:56.974Z,17.00
2018-03-17T17:07:00.254Z,15.17
2018-03-17T17:10:04.547Z,16.30
2018-03-17T17:13:08.627Z,20.77
2018-03-17T17:16:12.207Z,19.07
2018-03-17T17:19:16.241Z,17.23
2018-03-17T17:22:19.544Z,18.80
2018-03-17T17:25:22.845Z,17.57
2018-03-17T17:28:26.110Z,19.37
2018-03-17T17:31:30.156Z,17.33
2018-03-17T17:34:33.408Z,19.43
2018-03-17T17:37:37.435Z,17.40
2018-03-17T17:40:41.469Z,19.10
2018-03-17T17:43:45.975Z,17.83
2018-03-17T17:46:50.117Z,18.43
2018-03-17T17:49:53.396Z,17.50
2018-03-17T17:52:56.664Z,19.60
2018-03-17T17:55:59.950Z,18.17
2018-03-17T17:59:03.235Z,16.00
2018-03-17T18:02:06.510Z,18.50
2018-03-17T18:05:09.773Z,17.00
2018-03-17T18:08:13.079Z,20.17
2018-03-17T18:11:16.344Z,15.03
2018-03-17T18:14:19.690Z,14.37
2018-03-17T18:17:22.977Z,12.40
2018-03-17T18:20:26.242Z,18.00
2018-03-17T18:23:29.527Z,18.70
2018-03-17T18:26:32.786Z,18.70
2018-03-17T18:29:36.069Z,20.93
2018-03-17T18:32:39.349Z,17.70
2018-03-17T18:35:43.425Z,19.67
2018-03-17T18:38:46.705Z,15.77
2018-03-17T18:41:49.990Z,18.27
2018-03-17T18:44:53.259Z,20.10
2018-03-17T18:47:57.380Z,17.60
2018-03-17T18:51:02.259Z,18.93
2018-03-17T18:54:05.546Z,17.27
2018-03-17T18:57:08.921Z,16.63
2018-03-17T19:00:14.082Z,16.50
2018-03-17T19:03:17.392Z,20.83
2018-03-17T19:06:20.673Z,17.83
2018-03-17T19:09:24.840Z,17.30
2018-03-17T19:12:28.302Z,15.10
2018-03-17T19:15:31.596Z,16.20
2018-03-17T19:18:34.922Z,17.43
2018-03-17T19:21:38.198Z,16.80
2018-03-17T19:24:41.494Z,14.93
2018-03-17T19:27:44.789Z,16.90
2018-03-17T19:30:48.196Z,16.87
2018-03-17T19:33:51.733Z,16.83
2018-03-17T19:36:55.102Z,15.90
2018-03-17T19:39:58.496Z,14.27
2018-03-17T19:43:01.895Z,16.43
2018-03-17T19:46:06.108Z,17.60
2018-03-17T19:49:10.257Z,13.87
2018-03-17T19:52:23.049Z,15.40
2018-03-17T19:55:27.189Z,16.55
2018-03-17T19:58:30.523Z,14.47
2018-03-17T20:01:33.880Z,15.30
2018-03-17T20:04:37.179Z,15.37
2018-03-17T20:07:40.563Z,15.20
2018-03-17T20:10:44.597Z,15.53
2018-03-17T20:13:47.907Z,16.03
2018-03-17T20:16:51.278Z,13.90
2018-03-17T20:19:54.857Z,14.13
2018-03-17T20:22:59.625Z,17.53
2018-03-17T20:26:02.922Z,16.67
2018-03-17T20:29:06.942Z,15.57
2018-03-17T20:32:10.374Z,17.07
2018-03-17T20:35:13.645Z,14.57
2018-03-17T20:38:16.940Z,14.23
2018-03-17T20:41:20.359Z,13.60
2018-03-17T20:44:24.239Z,14.10
2018-03-17T20:47:27.642Z,14.87
2018-03-17T20:50:31.801Z,15.37
2018-03-17T20:53:35.170Z,13.37
2018-03-17T20:56:38.454Z,12.47
2018-03-17T20:59:41.745Z,14.07
2018-03-17T21:02:45.804Z,15.33
2018-03-17T21:05:49.159Z,14.53
2018-03-17T21:08:53.690Z,15.93
2018-03-17T21:11:56.962Z,16.23
2018-03-17T21:15:00.282Z,14.43
2018-03-17T21:18:04.313Z,13.77
2018-03-17T21:21:07.597Z,12.33
2018-03-17T21:24:11.708Z,15.30
2018-03-17T21:27:14.987Z,14.03
2018-03-17T21:30:19.850Z,14.03
2018-03-17T21:33:23.141Z,14.87
2018-03-17T21:36:27.343Z,14.53
2018-03-17T21:39:31.393Z,15.10
2018-03-17T21:42:34.715Z,14.77
2018-03-17T21:45:37.971Z,14.98
2018-03-17T21:48:41.265Z,12.23
2018-03-17T21:51:45.587Z,17.30
2018-03-17T21:54:48.879Z,12.95
2018-03-17T21:57:52.918Z,13.47
2018-03-17T22:00:56.215Z,16.97
2018-03-17T22:03:59.507Z,14.57
2018-03-17T22:07:02.999Z,15.60
2018-03-17T22:10:07.043Z,14.17
2018-03-17T22:13:10.616Z,16.13
2018-03-17T22:16:14.031Z,14.23
2018-03-17T22:19:17.306Z,17.40
2018-03-17T22:22:21.366Z,15.93
2018-03-17T22:25:24.646Z,13.67
2018-03-17T22:28:27.919Z,12.37
2018-03-17T22:31:31.966Z,13.53
2018-03-17T22:34:35.238Z,15.10
2018-03-17T22:37:38.535Z,16.17
2018-03-17T22:40:42.575Z,15.47
2018-03-17T22:43:46.043Z,16.58
2018-03-17T22:46:50.168Z,15.10
2018-03-17T22:49:54.378Z,14.93
2018-03-17T22:52:58.569Z,15.33
2018-03-17T22:56:01.842Z,15.43
2018-03-17T22:59:05.115Z,15.60
2018-03-17T23:02:08.404Z,17.60
2018-03-17T23:05:11.701Z,13.67
2018-03-17T23:08:14.995Z,13.70
2018-03-17T23:11:18.288Z,13.63
2018-03-17T23:14:22.317Z,14.13
2018-03-17T23:17:25.616Z,13.50
2018-03-17T23:20:28.976Z,12.95
2018-03-17T23:23:32.311Z,14.07
2018-03-17T23:26:35.593Z,15.30
2018-03-17T23:29:39.893Z,14.13
2018-03-17T23:32:43.933Z,13.17
2018-03-17T23:35:47.345Z,14.13
2018-03-17T23:38:50.636Z,14.13
2018-03-17T23:41:54.031Z,11.80
2018-03-17T23:44:57.545Z,16.73
2018-03-17T23:48:00.830Z,12.47
2018-03-17T23:51:04.418Z,15.10
2018-03-17T23:54:08.466Z,13.10
2018-03-17T23:57:11.765Z,14.43
